createdAt,value
2022-09-15T05:35:33.422Z,14.20
2022-09-15T05:40:35.221Z,14.20
2022-09-15T05:45:37.573Z,14.20
2022-09-15T05:50:39.707Z,14.20
2022-09-15T05:55:41.489Z,14.20
2022-09-15T06:00:43.316Z,14.20
2022-09-15T06:05:45.102Z,14.20
2022-09-15T06:10:47.455Z,14.30
2022-09-15T06:15:49.491Z,14.30
2022-09-15T06:20:51.287Z,14.30
2022-09-15T06:25:53.430Z,14.30
2022-09-15T06:30:55.205Z,14.40
2022-09-15T06:35:57.065Z,14.40
2022-09-15T06:40:59.424Z,14.40
2022-09-15T06:46:04.001Z,14.40
2022-09-15T06:51:07.187Z,14.50
2022-09-15T06:56:11.047Z,14.50
2022-09-15T07:01:18.090Z,14.60
2022-09-15T07:06:20.223Z,14.60
2022-09-15T07:11:22.013Z,14.70
2022-09-15T07:16:29.281Z,14.70
2022-09-15T07:21:31.208Z,14.80
2022-09-15T07:26:33.922Z,14.80
2022-09-15T07:31:37.477Z,14.90
2022-09-15T07:36:39.316Z,15.00
2022-09-15T07:41:41.080Z,15.00
2022-09-15T07:46:43.322Z,15.10
2022-09-15T07:51:45.136Z,15.10
2022-09-15T07:56:47.072Z,15.20
2022-09-15T08:01:51.233Z,15.30
2022-09-15T08:06:53.241Z,15.30
2022-09-15T08:11:55.029Z,15.40
2022-09-15T08:16:58.136Z,15.40
2022-09-15T08:22:00.535Z,15.50
2022-09-15T08:27:02.828Z,15.60
2022-09-15T08:32:05.216Z,15.60
2022-09-15T08:37:07.239Z,15.70
2022-09-15T08:42:15.332Z,15.70
2022-09-15T08:47:31.770Z,15.80
2022-09-15T08:52:35.873Z,15.80
2022-09-15T08:57:37.748Z,15.90
2022-09-15T09:03:01.255Z,16.00
2022-09-15T09:08:22.446Z,16.10
2022-09-15T09:13:47.450Z,16.20
2022-09-15T09:19:10.809Z,16.30
2022-09-15T09:24:17.754Z,16.40
2022-09-15T09:29:26.763Z,16.40
2022-09-15T09:34:35.375Z,16.40
2022-09-15T09:39:37.156Z,16.50
2022-09-15T09:44:40.629Z,16.30
2022-09-15T09:49:49.812Z,16.20
2022-09-15T09:55:00.209Z,16.10
2022-09-15T10:00:02.150Z,16.00
2022-09-15T10:05:06.848Z,15.80
2022-09-15T10:10:20.089Z,15.70
2022-09-15T10:15:27.499Z,15.70
2022-09-15T10:20:49.974Z,15.60
2022-09-15T10:25:59.712Z,15.70
2022-09-15T10:31:08.036Z,15.70
2022-09-15T10:36:15.410Z,15.80
2022-09-15T10:41:28.483Z,15.90
2022-09-15T10:46:39.558Z,15.90
2022-09-15T10:51:59.455Z,15.90
2022-09-15T10:57:22.130Z,15.80
2022-09-15T11:02:30.185Z,15.60
2022-09-15T11:07:54.394Z,15.60
2022-09-15T11:13:17.669Z,15.80
2022-09-15T11:18:51.884Z,16.00
2022-09-15T11:24:24.246Z,16.10
2022-09-15T11:29:31.636Z,16.20
2022-09-15T11:34:39.346Z,16.20
2022-09-15T11:40:08.079Z,16.40
2022-09-15T11:45:17.995Z,16.50
2022-09-15T11:50:19.962Z,16.60
2022-09-15T11:55:24.677Z,16.70
2022-09-15T12:00:26.963Z,16.70
2022-09-15T12:05:36.952Z,16.80
2022-09-15T12:10:44.953Z,16.90
2022-09-15T12:15:48.153Z,17.00
2022-09-15T12:21:08.308Z,17.30
2022-09-15T12:26:17.536Z,17.60
2022-09-15T12:31:35.970Z,17.60
2022-09-15T12:36:53.769Z,17.70
2022-09-15T12:42:12.529Z,17.70
2022-09-15T12:47:21.824Z,17.70
2022-09-15T12:52:25.319Z,17.70
2022-09-15T12:57:35.966Z,17.90
2022-09-15T13:02:44.040Z,18.10
2022-09-15T13:07:54.957Z,18.30
2022-09-15T13:13:12.992Z,18.40
2022-09-15T13:18:21.380Z,18.40
2022-09-15T13:23:25.158Z,18.30
2022-09-15T13:28:27.336Z,18.30
2022-09-15T13:35:02.247Z,18.20
2022-09-15T13:39:05.401Z,18.20
2022-09-15T13:44:51.506Z,18.10
2022-09-15T13:50:13.304Z,18.00
2022-09-15T13:55:15.488Z,17.90
2022-09-15T14:00:23.072Z,17.80
2022-09-15T14:05:27.168Z,17.70
2022-09-15T14:10:31.894Z,17.70
2022-09-15T14:15:34.042Z,17.60
2022-09-15T14:20:35.815Z,17.60
2022-09-15T14:25:37.627Z,17.60
2022-09-15T14:30:40.149Z,17.60
2022-09-15T14:35:42.031Z,17.60
2022-09-15T14:40:43.998Z,17.60
2022-09-15T14:45:57.672Z,17.60
2022-09-15T14:51:07.232Z,17.50
2022-09-15T14:56:12.855Z,17.30
2022-09-15T15:01:20.619Z,17.20
2022-09-15T15:06:38.534Z,17.10
2022-09-15T15:11:42.109Z,17.00
2022-09-15T15:16:58.565Z,16.80
2022-09-15T15:22:13.680Z,16.60
2022-09-15T15:27:33.556Z,16.40
2022-09-15T15:32:35.550Z,16.40
2022-09-15T15:37:37.372Z,16.40
2022-09-15T15:42:51.802Z,16.40
2022-09-15T15:47:54.212Z,16.40
2022-09-15T15:52:56.274Z,16.40
2022-09-15T15:57:58.508Z,16.40
2022-09-15T16:03:00.445Z,16.40
2022-09-15T16:08:05.513Z,16.50
2022-09-15T16:13:08.354Z,16.60
2022-09-15T16:18:15.382Z,16.60
2022-09-15T16:23:19.466Z,16.50
2022-09-15T16:28:21.389Z,16.50
2022-09-15T16:33:23.906Z,16.40
2022-09-15T16:38:26.032Z,16.30
2022-09-15T16:43:27.949Z,16.10
2022-09-15T16:48:29.776Z,16.00
2022-09-15T16:53:32.101Z,16.00
2022-09-15T16:58:34.812Z,16.00
2022-09-15T17:03:36.900Z,16.00
2022-09-15T17:08:38.877Z,16.00
2022-09-15T17:13:41.121Z,16.00
2022-09-15T17:18:43.006Z,16.00
2022-09-15T17:23:47.243Z,16.00
2022-09-15T17:28:49.381Z,16.00
2022-09-15T17:33:51.491Z,15.90
2022-09-15T17:38:53.734Z,15.90
2022-09-15T17:43:55.652Z,15.90
2022-09-15T17:48:59.871Z,15.90
2022-09-15T17:54:01.731Z,15.90
2022-09-15T17:59:03.643Z,15.80
2022-09-15T18:04:05.594Z,15.80
2022-09-15T18:09:07.518Z,15.70
2022-09-15T18:14:10.633Z,15.70
